sensor_id;sensor_type;location;lat;lon;timestamp;temperature;humidity
23669;DHT22;12011;47.422;15.018;2023-02-27T00:04:53;-2.70;99.90
23669;DHT22;12011;47.422;15.018;2023-02-27T00:07:26;-2.50;99.90
23669;DHT22;12011;47.422;15.018;2023-02-27T00:09:57;-2.10;98.20
23669;DHT22;12011;47.422;15.018;2023-02-27T00:12:31;0.10;99.90
23669;DHT22;12011;47.422;15.018;2023-02-27T00:15:06;0.10;98.90
23669;DHT22;12011;47.422;15.018;2023-02-27T00:17:39;-2.50;98.20
23669;DHT22;12011;47.422;15.018;2023-02-27T00:20:17;0.30;95.40
23669;DHT22;12011;47.422;15.018;2023-02-27T00:22:52;-4.70;95.90
23669;DHT22;12011;47.422;15.018;2023-02-27T00:25:25;-1.70;96.60
23669;DHT22;12011;47.422;15.018;2023-02-27T00:27:57;0.70;94.70
23669;DHT22;12011;47.422;15.018;2023-02-27T00:30:32;-1.10;95.00
23669;DHT22;12011;47.422;15.018;2023-02-27T00:33:08;0.20;95.90
23669;DHT22;12011;47.422;15.018;2023-02-27T00:35:41;-0.70;95.20
23669;DHT22;12011;47.422;15.018;2023-02-27T00:38:25;-0.60;96.40
23669;DHT22;12011;47.422;15.018;2023-02-27T00:40:57;-1.90;94.90
23669;DHT22;12011;47.422;15.018;2023-02-27T00:43:34;-2.00;94.70
23669;DHT22;12011;47.422;15.018;2023-02-27T00:46:10;0.80;95.00
23669;DHT22;12011;47.422;15.018;2023-02-27T00:48:42;0.30;95.90
23669;DHT22;12011;47.422;15.018;2023-02-27T00:51:15;-4.30;95.40
23669;DHT22;12011;47.422;15.018;2023-02-27T00:54:01;0.90;95.50
23669;DHT22;12011;47.422;15.018;2023-02-27T00:56:35;-2.50;94.20
23669;DHT22;12011;47.422;15.018;2023-02-27T00:59:13;-1.20;93.30
23669;DHT22;12011;47.422;15.018;2023-02-27T01:01:55;-2.20;92.50
23669;DHT22;12011;47.422;15.018;2023-02-27T01:04:27;-2.10;92.30
23669;DHT22;12011;47.422;15.018;2023-02-27T01:07:02;1.20;95.50
23669;DHT22;12011;47.422;15.018;2023-02-27T01:09:36;-1.60;92.40
23669;DHT22;12011;47.422;15.018;2023-02-27T01:12:11;-2.50;91.90
23669;DHT22;12011;47.422;15.018;2023-02-27T01:14:46;0.50;94.40
23669;DHT22;12011;47.422;15.018;2023-02-27T01:17:26;-0.60;95.20
23669;DHT22;12011;47.422;15.018;2023-02-27T01:19:57;1.20;93.20
23669;DHT22;12011;47.422;15.018;2023-02-27T01:22:32;-1.80;92.70
23669;DHT22;12011;47.422;15.018;2023-02-27T01:25:14;-2.20;92.40
23669;DHT22;12011;47.422;15.018;2023-02-27T01:27:49;-1.80;93.90
23669;DHT22;12011;47.422;15.018;2023-02-27T01:30:21;0.70;91.30
23669;DHT22;12011;47.422;15.018;2023-02-27T01:32:58;0.90;94.60
23669;DHT22;12011;47.422;15.018;2023-02-27T01:35:31;-2.30;92.90
23669;DHT22;12011;47.422;15.018;2023-02-27T01:38:06;-1.50;92.30
23669;DHT22;12011;47.422;15.018;2023-02-27T01:40:44;0.90;91.80
23669;DHT22;12011;47.422;15.018;2023-02-27T01:43:18;-2.20;91.40
23669;DHT22;12011;47.422;15.018;2023-02-27T01:45:59;0.00;96.70
23669;DHT22;12011;47.422;15.018;2023-02-27T01:48:34;-1.50;97.00
23669;DHT22;12011;47.422;15.018;2023-02-27T01:51:13;-0.50;95.20
23669;DHT22;12011;47.422;15.018;2023-02-27T01:53:50;-2.90;93.30
23669;DHT22;12011;47.422;15.018;2023-02-27T01:56:29;0.20;96.90
23669;DHT22;12011;47.422;15.018;2023-02-27T01:59:09;-2.50;97.00
23669;DHT22;12011;47.422;15.018;2023-02-27T02:01:41;-4.90;98.10
23669;DHT22;12011;47.422;15.018;2023-02-27T02:04:20;-2.00;98.20
23669;DHT22;12011;47.422;15.018;2023-02-27T02:06:59;0.50;99.80
23669;DHT22;12011;47.422;15.018;2023-02-27T02:09:36;-2.40;98.90
23669;DHT22;12011;47.422;15.018;2023-02-27T02:12:15;0.80;99.90
23669;DHT22;12011;47.422;15.018;2023-02-27T02:14:49;0.00;99.90
23669;DHT22;12011;47.422;15.018;2023-02-27T02:17:31;-2.00;99.90
23669;DHT22;12011;47.422;15.018;2023-02-27T02:23:57;-2.70;99.90
23669;DHT22;12011;47.422;15.018;2023-02-27T02:26:53;-2.60;99.90
23669;DHT22;12011;47.422;15.018;2023-02-27T02:40:15;0.50;99.90
23669;DHT22;12011;47.422;15.018;2023-02-27T02:43:00;-1.90;99.90
23669;DHT22;12011;47.422;15.018;2023-02-27T02:45:47;0.20;99.90
23669;DHT22;12011;47.422;15.018;2023-02-27T02:48:35;-3.10;99.90
23669;DHT22;12011;47.422;15.018;2023-02-27T02:51:19;-2.40;99.90
23669;DHT22;12011;47.422;15.018;2023-02-27T02:54:01;0.60;99.90
23669;DHT22;12011;47.422;15.018;2023-02-27T02:56:43;-2.80;99.90
23669;DHT22;12011;47.422;15.018;2023-02-27T02:59:26;-2.60;99.90
23669;DHT22;12011;47.422;15.018;2023-02-27T03:02:03;-3.50;99.90
23669;DHT22;12011;47.422;15.018;2023-02-27T03:04:40;-2.90;99.90
23669;DHT22;12011;47.422;15.018;2023-02-27T03:07:20;-0.50;99.90
23669;DHT22;12011;47.422;15.018;2023-02-27T03:10:02;-1.90;99.90
23669;DHT22;12011;47.422;15.018;2023-02-27T03:12:42;-0.80;99.90
23669;DHT22;12011;47.422;15.018;2023-02-27T03:15:26;-1.90;99.90
23669;DHT22;12011;47.422;15.018;2023-02-27T03:18:13;-2.50;99.90
23669;DHT22;12011;47.422;15.018;2023-02-27T03:20:50;-0.70;99.90
23669;DHT22;12011;47.422;15.018;2023-02-27T03:23:31;-1.60;99.90
23669;DHT22;12011;47.422;15.018;2023-02-27T03:26:08;0.00;99.90
23669;DHT22;12011;47.422;15.018;2023-02-27T03:28:59;-2.50;99.90
23669;DHT22;12011;47.422;15.018;2023-02-27T03:31:39;-2.00;99.90
23669;DHT22;12011;47.422;15.018;2023-02-27T03:34:18;-2.20;99.90
23669;DHT22;12011;47.422;15.018;2023-02-27T03:37:10;-2.70;99.90
23669;DHT22;12011;47.422;15.018;2023-02-27T03:40:00;0.00;99.90
23669;DHT22;12011;47.422;15.018;2023-02-27T03:42:48;-2.50;99.90
23669;DHT22;12011;47.422;15.018;2023-02-27T03:45:44;-1.80;99.90
23669;DHT22;12011;47.422;15.018;2023-02-27T03:48:24;-2.70;99.90
23669;DHT22;12011;47.422;15.018;2023-02-27T03:50:57;-1.70;99.90
23669;DHT22;12011;47.422;15.018;2023-02-27T03:53:36;-0.30;99.90
23669;DHT22;12011;47.422;15.018;2023-02-27T03:56:23;-0.20;99.90
23669;DHT22;12011;47.422;15.018;2023-02-27T03:58:55;-0.20;99.90
23669;DHT22;12011;47.422;15.018;2023-02-27T04:01:31;-1.80;99.90
23669;DHT22;12011;47.422;15.018;2023-02-27T04:04:14;0.60;99.90
23669;DHT22;12011;47.422;15.018;2023-02-27T04:07:19;-2.30;99.90
23669;DHT22;12011;47.422;15.018;2023-02-27T04:10:18;-1.20;99.90
23669;DHT22;12011;47.422;15.018;2023-02-27T04:13:19;0.20;99.90
23669;DHT22;12011;47.422;15.018;2023-02-27T04:16:20;-1.20;99.90
23669;DHT22;12011;47.422;15.018;2023-02-27T04:19:16;-2.20;99.90
23669;DHT22;12011;47.422;15.018;2023-02-27T04:22:11;-0.50;99.90
23669;DHT22;12011;47.422;15.018;2023-02-27T04:25:03;1.60;99.90
23669;DHT22;12011;47.422;15.018;2023-02-27T04:27:52;-2.50;99.90
23669;DHT22;12011;47.422;15.018;2023-02-27T04:30:41;-2.60;99.90
23669;DHT22;12011;47.422;15.018;2023-02-27T04:33:44;-0.40;99.90
23669;DHT22;12011;47.422;15.018;2023-02-27T04:36:30;-2.50;99.90
23669;DHT22;12011;47.422;15.018;2023-02-27T04:39:06;-2.60;99.90
23669;DHT22;12011;47.422;15.018;2023-02-27T04:41:51;-3.10;99.90
23669;DHT22;12011;47.422;15.018;2023-02-27T04:44:26;0.10;99.90
23669;DHT22;12011;47.422;15.018;2023-02-27T04:47:05;-2.60;99.90
23669;DHT22;12011;47.422;15.018;2023-02-27T04:49:50;-2.70;99.90
23669;DHT22;12011;47.422;15.018;2023-02-27T04:52:31;-2.70;99.90
23669;DHT22;12011;47.422;15.018;2023-02-27T04:55:13;-2.70;99.90
23669;DHT22;12011;47.422;15.018;2023-02-27T04:57:54;-0.30;99.90
23669;DHT22;12011;47.422;15.018;2023-02-27T05:00:38;-2.80;99.90
23669;DHT22;12011;47.422;15.018;2023-02-27T05:03:16;-2.80;99.90
23669;DHT22;12011;47.422;15.018;2023-02-27T05:05:57;-0.10;99.90
23669;DHT22;12011;47.422;15.018;2023-02-27T05:08:40;-0.80;99.90
23669;DHT22;12011;47.422;15.018;2023-02-27T05:11:24;-1.90;99.90
23669;DHT22;12011;47.422;15.018;2023-02-27T05:14:07;-5.50;99.90
23669;DHT22;12011;47.422;15.018;2023-02-27T05:16:46;-1.10;99.90
23669;DHT22;12011;47.422;15.018;2023-02-27T06:09:27;-3.60;99.90
23669;DHT22;12011;47.422;15.018;2023-02-27T06:12:04;-1.80;99.90
23669;DHT22;12011;47.422;15.018;2023-02-27T07:05:44;-1.30;99.40
23669;DHT22;12011;47.422;15.018;2023-02-27T07:11:50;-1.10;99.90
23669;DHT22;12011;47.422;15.018;2023-02-27T07:14:20;1.20;99.90
23669;DHT22;12011;47.422;15.018;2023-02-27T07:16:50;-0.90;99.90
23669;DHT22;12011;47.422;15.018;2023-02-27T07:19:22;0.70;99.30
23669;DHT22;12011;47.422;15.018;2023-02-27T07:21:54;0.60;99.40
23669;DHT22;12011;47.422;15.018;2023-02-27T07:24:24;0.70;98.10
23669;DHT22;12011;47.422;15.018;2023-02-27T07:26:53;1.10;95.60
23669;DHT22;12011;47.422;15.018;2023-02-27T07:29:23;2.00;94.50
23669;DHT22;12011;47.422;15.018;2023-02-27T07:31:52;1.00;93.90
23669;DHT22;12011;47.422;15.018;2023-02-27T07:34:22;1.50;89.60
23669;DHT22;12011;47.422;15.018;2023-02-27T07:36:54;2.00;92.50
23669;DHT22;12011;47.422;15.018;2023-02-27T07:39:23;1.30;90.60
23669;DHT22;12011;47.422;15.018;2023-02-27T07:41:53;1.70;86.10
23669;DHT22;12011;47.422;15.018;2023-02-27T07:44:22;1.10;83.00
23669;DHT22;12011;47.422;15.018;2023-02-27T07:46:52;1.30;77.40
23669;DHT22;12011;47.422;15.018;2023-02-27T07:49:21;2.00;82.20
23669;DHT22;12011;47.422;15.018;2023-02-27T07:51:50;1.10;73.90
23669;DHT22;12011;47.422;15.018;2023-02-27T07:54:23;2.00;75.10
23669;DHT22;12011;47.422;15.018;2023-02-27T07:56:52;1.70;70.80
23669;DHT22;12011;47.422;15.018;2023-02-27T07:59:22;3.10;65.90
23669;DHT22;12011;47.422;15.018;2023-02-27T08:01:51;2.10;61.70
23669;DHT22;12011;47.422;15.018;2023-02-27T08:04:21;2.70;61.20
23669;DHT22;12011;47.422;15.018;2023-02-27T08:06:50;1.80;60.20
23669;DHT22;12011;47.422;15.018;2023-02-27T08:09:22;2.80;63.30
23669;DHT22;12011;47.422;15.018;2023-02-27T08:11:52;3.60;60.10
23669;DHT22;12011;47.422;15.018;2023-02-27T08:14:21;3.50;61.60
23669;DHT22;12011;47.422;15.018;2023-02-27T08:16:51;2.50;60.30
23669;DHT22;12011;47.422;15.018;2023-02-27T08:19:20;2.60;60.00
23669;DHT22;12011;47.422;15.018;2023-02-27T08:21:49;3.20;63.10
23669;DHT22;12011;47.422;15.018;2023-02-27T08:24:22;1.50;61.10
23669;DHT22;12011;47.422;15.018;2023-02-27T08:26:51;2.90;62.80
23669;DHT22;12011;47.422;15.018;2023-02-27T08:29:22;2.90;63.90
23669;DHT22;12011;47.422;15.018;2023-02-27T08:31:53;2.60;60.40
23669;DHT22;12011;47.422;15.018;2023-02-27T08:34:22;2.00;65.20
23669;DHT22;12011;47.422;15.018;2023-02-27T08:36:52;1.60;62.70
23669;DHT22;12011;47.422;15.018;2023-02-27T08:39:24;0.30;65.60
23669;DHT22;12011;47.422;15.018;2023-02-27T08:41:54;1.70;68.70
23669;DHT22;12011;47.422;15.018;2023-02-27T08:44:23;2.00;64.70
23669;DHT22;12011;47.422;15.018;2023-02-27T08:46:53;1.30;65.60
23669;DHT22;12011;47.422;15.018;2023-02-27T08:49:22;1.40;71.30
23669;DHT22;12011;47.422;15.018;2023-02-27T08:51:52;2.10;69.30
23669;DHT22;12011;47.422;15.018;2023-02-27T08:54:24;1.30;67.00
23669;DHT22;12011;47.422;15.018;2023-02-27T08:56:53;2.40;71.60
23669;DHT22;12011;47.422;15.018;2023-02-27T08:59:23;2.90;66.90
23669;DHT22;12011;47.422;15.018;2023-02-27T09:01:52;3.30;62.40
23669;DHT22;12011;47.422;15.018;2023-02-27T09:04:22;2.60;63.40
23669;DHT22;12011;47.422;15.018;2023-02-27T09:06:51;2.70;62.80
23669;DHT22;12011;47.422;15.018;2023-02-27T09:09:25;1.00;60.80
23669;DHT22;12011;47.422;15.018;2023-02-27T09:11:54;1.70;59.70
23669;DHT22;12011;47.422;15.018;2023-02-27T09:14:23;2.00;60.40
23669;DHT22;12011;47.422;15.018;2023-02-27T09:16:53;4.20;61.90
23669;DHT22;12011;47.422;15.018;2023-02-27T09:19:23;3.50;59.60
23669;DHT22;12011;47.422;15.018;2023-02-27T09:21:53;1.20;57.00
23669;DHT22;12011;47.422;15.018;2023-02-27T09:24:25;2.00;60.40
23669;DHT22;12011;47.422;15.018;2023-02-27T09:26:54;1.60;59.90
23669;DHT22;12011;47.422;15.018;2023-02-27T09:29:24;0.90;60.70
23669;DHT22;12011;47.422;15.018;2023-02-27T09:31:53;2.00;58.10
23669;DHT22;12011;47.422;15.018;2023-02-27T09:34:23;2.00;55.60
23669;DHT22;12011;47.422;15.018;2023-02-27T09:36:52;1.80;56.00
23669;DHT22;12011;47.422;15.018;2023-02-27T09:39:24;2.20;55.60
23669;DHT22;12011;47.422;15.018;2023-02-27T09:41:59;2.20;57.20
23669;DHT22;12011;47.422;15.018;2023-02-27T09:44:37;2.20;55.60
23669;DHT22;12011;47.422;15.018;2023-02-27T09:47:15;2.30;52.60
23669;DHT22;12011;47.422;15.018;2023-02-27T09:49:55;2.40;53.10
23669;DHT22;12011;47.422;15.018;2023-02-27T09:52:29;2.80;57.30
23669;DHT22;12011;47.422;15.018;2023-02-27T09:55:04;3.10;52.60
23669;DHT22;12011;47.422;15.018;2023-02-27T09:57:42;2.80;50.10
23669;DHT22;12011;47.422;15.018;2023-02-27T10:00:30;2.70;52.50
23669;DHT22;12011;47.422;15.018;2023-02-27T10:03:21;3.20;53.40
23669;DHT22;12011;47.422;15.018;2023-02-27T10:06:16;3.10;54.80
23669;DHT22;12011;47.422;15.018;2023-02-27T10:09:01;3.40;51.90
23669;DHT22;12011;47.422;15.018;2023-02-27T10:11:55;2.80;52.50
23669;DHT22;12011;47.422;15.018;2023-02-27T10:14:40;2.90;53.50
23669;DHT22;12011;47.422;15.018;2023-02-27T10:17:17;3.40;47.60
23669;DHT22;12011;47.422;15.018;2023-02-27T10:19:51;3.30;50.50
23669;DHT22;12011;47.422;15.018;2023-02-27T10:22:25;3.40;51.20
23669;DHT22;12011;47.422;15.018;2023-02-27T10:25:01;3.20;49.50
23669;DHT22;12011;47.422;15.018;2023-02-27T10:27:36;3.30;49.90
23669;DHT22;12011;47.422;15.018;2023-02-27T10:30:20;4.50;51.50
23669;DHT22;12011;47.422;15.018;2023-02-27T10:32:55;3.40;51.70
23669;DHT22;12011;47.422;15.018;2023-02-27T10:35:32;3.20;51.90
23669;DHT22;12011;47.422;15.018;2023-02-27T10:38:07;3.50;49.50
23669;DHT22;12011;47.422;15.018;2023-02-27T10:40:42;3.40;48.20
23669;DHT22;12011;47.422;15.018;2023-02-27T10:43:16;5.20;45.80
23669;DHT22;12011;47.422;15.018;2023-02-27T10:45:46;4.00;42.20
23669;DHT22;12011;47.422;15.018;2023-02-27T10:48:16;4.90;45.80
23669;DHT22;12011;47.422;15.018;2023-02-27T10:50:49;5.50;42.10
23669;DHT22;12011;47.422;15.018;2023-02-27T10:53:22;5.20;43.00
23669;DHT22;12011;47.422;15.018;2023-02-27T10:56:03;5.80;41.20
23669;DHT22;12011;47.422;15.018;2023-02-27T10:58:37;5.30;41.90
23669;DHT22;12011;47.422;15.018;2023-02-27T11:01:09;5.20;41.70
23669;DHT22;12011;47.422;15.018;2023-02-27T11:03:41;5.10;44.60
23669;DHT22;12011;47.422;15.018;2023-02-27T11:06:19;3.70;43.30
23669;DHT22;12011;47.422;15.018;2023-02-27T11:09:15;5.30;45.00
23669;DHT22;12011;47.422;15.018;2023-02-27T11:11:49;4.40;40.80
23669;DHT22;12011;47.422;15.018;2023-02-27T11:14:30;4.30;44.20
23669;DHT22;12011;47.422;15.018;2023-02-27T11:17:01;4.30;41.90
23669;DHT22;12011;47.422;15.018;2023-02-27T11:19:34;4.20;40.50
23669;DHT22;12011;47.422;15.018;2023-02-27T11:22:17;5.20;43.50
23669;DHT22;12011;47.422;15.018;2023-02-27T11:24:49;5.70;40.70
23669;DHT22;12011;47.422;15.018;2023-02-27T11:27:22;6.00;42.00
23669;DHT22;12011;47.422;15.018;2023-02-27T11:30:02;6.10;38.20
23669;DHT22;12011;47.422;15.018;2023-02-27T11:32:41;6.00;42.70
23669;DHT22;12011;47.422;15.018;2023-02-27T11:35:24;5.90;40.40
23669;DHT22;12011;47.422;15.018;2023-02-27T11:37:59;6.60;44.90
23669;DHT22;12011;47.422;15.018;2023-02-27T11:40:38;6.10;39.40
23669;DHT22;12011;47.422;15.018;2023-02-27T11:43:24;6.90;41.90
23669;DHT22;12011;47.422;15.018;2023-02-27T11:46:04;6.50;41.00
23669;DHT22;12011;47.422;15.018;2023-02-27T11:48:45;6.60;40.20
23669;DHT22;12011;47.422;15.018;2023-02-27T11:51:33;6.40;35.90
23669;DHT22;12011;47.422;15.018;2023-02-27T11:54:32;5.50;42.60
23669;DHT22;12011;47.422;15.018;2023-02-27T11:57:20;6.30;36.80
23669;DHT22;12011;47.422;15.018;2023-02-27T12:00:00;6.00;38.10
23669;DHT22;12011;47.422;15.018;2023-02-27T12:02:51;5.90;40.90
23669;DHT22;12011;47.422;15.018;2023-02-27T12:05:28;6.10;41.50
23669;DHT22;12011;47.422;15.018;2023-02-27T12:08:10;6.60;40.80
23669;DHT22;12011;47.422;15.018;2023-02-27T12:10:48;6.30;39.30
23669;DHT22;12011;47.422;15.018;2023-02-27T12:13:30;6.50;43.50
23669;DHT22;12011;47.422;15.018;2023-02-27T12:16:12;5.80;44.10
23669;DHT22;12011;47.422;15.018;2023-02-27T12:18:54;6.20;42.00
23669;DHT22;12011;47.422;15.018;2023-02-27T12:21:34;6.30;44.40
23669;DHT22;12011;47.422;15.018;2023-02-27T12:24:13;5.30;43.60
23669;DHT22;12011;47.422;15.018;2023-02-27T12:26:55;5.70;39.70
23669;DHT22;12011;47.422;15.018;2023-02-27T12:29:34;5.50;41.80
23669;DHT22;12011;47.422;15.018;2023-02-27T12:32:16;6.10;42.80
23669;DHT22;12011;47.422;15.018;2023-02-27T12:34:55;5.50;43.80
23669;DHT22;12011;47.422;15.018;2023-02-27T12:37:32;6.20;44.10
23669;DHT22;12011;47.422;15.018;2023-02-27T12:40:12;5.10;41.40
23669;DHT22;12011;47.422;15.018;2023-02-27T12:43:21;5.60;44.70
23669;DHT22;12011;47.422;15.018;2023-02-27T12:46:22;5.70;42.00
23669;DHT22;12011;47.422;15.018;2023-02-27T12:49:15;4.80;42.70
23669;DHT22;12011;47.422;15.018;2023-02-27T12:52:14;5.80;50.10
23669;DHT22;12011;47.422;15.018;2023-02-27T12:54:58;4.90;44.70
23669;DHT22;12011;47.422;15.018;2023-02-27T12:57:50;4.90;47.20
23669;DHT22;12011;47.422;15.018;2023-02-27T13:00:43;4.40;49.10
23669;DHT22;12011;47.422;15.018;2023-02-27T13:03:26;4.30;47.10
23669;DHT22;12011;47.422;15.018;2023-02-27T13:06:06;5.20;43.10
23669;DHT22;12011;47.422;15.018;2023-02-27T13:09:08;4.30;44.80
23669;DHT22;12011;47.422;15.018;2023-02-27T13:11:57;5.00;43.30
23669;DHT22;12011;47.422;15.018;2023-02-27T13:14:45;8.10;49.00
23669;DHT22;12011;47.422;15.018;2023-02-27T13:17:25;4.30;45.80
23669;DHT22;12011;47.422;15.018;2023-02-27T13:20:16;2.80;45.50
23669;DHT22;12011;47.422;15.018;2023-02-27T13:23:03;3.80;44.10
23669;DHT22;12011;47.422;15.018;2023-02-27T13:25:45;4.40;46.30
23669;DHT22;12011;47.422;15.018;2023-02-27T13:28:28;5.40;51.30
23669;DHT22;12011;47.422;15.018;2023-02-27T13:31:08;5.40;49.10
23669;DHT22;12011;47.422;15.018;2023-02-27T13:33:58;4.30;48.40
23669;DHT22;12011;47.422;15.018;2023-02-27T13:36:41;4.80;50.70
23669;DHT22;12011;47.422;15.018;2023-02-27T13:39:37;5.20;51.60
23669;DHT22;12011;47.422;15.018;2023-02-27T13:45:56;5.20;45.10
23669;DHT22;12011;47.422;15.018;2023-02-27T13:48:40;4.60;46.90
23669;DHT22;12011;47.422;15.018;2023-02-27T13:51:43;4.30;49.30
23669;DHT22;12011;47.422;15.018;2023-02-27T13:54:31;5.00;45.10
23669;DHT22;12011;47.422;15.018;2023-02-27T14:00:00;3.60;47.60
23669;DHT22;12011;47.422;15.018;2023-02-27T14:02:54;4.50;47.10
23669;DHT22;12011;47.422;15.018;2023-02-27T14:05:33;4.60;47.30
23669;DHT22;12011;47.422;15.018;2023-02-27T14:08:13;4.10;49.30
23669;DHT22;12011;47.422;15.018;2023-02-27T14:10:54;3.80;46.40
23669;DHT22;12011;47.422;15.018;2023-02-27T14:16:49;3.10;46.10
23669;DHT22;12011;47.422;15.018;2023-02-27T14:19:53;3.10;48.90
23669;DHT22;12011;47.422;15.018;2023-02-27T14:25:45;2.90;53.50
23669;DHT22;12011;47.422;15.018;2023-02-27T14:28:24;2.90;53.50
23669;DHT22;12011;47.422;15.018;2023-02-27T14:30:59;3.30;52.80
23669;DHT22;12011;47.422;15.018;2023-02-27T14:33:39;3.00;54.90
23669;DHT22;12011;47.422;15.018;2023-02-27T14:36:19;3.00;53.70
23669;DHT22;12011;47.422;15.018;2023-02-27T14:38:55;2.60;55.20
23669;DHT22;12011;47.422;15.018;2023-02-27T14:41:39;2.50;55.30
23669;DHT22;12011;47.422;15.018;2023-02-27T14:44:19;3.00;57.90
23669;DHT22;12011;47.422;15.018;2023-02-27T14:46:52;2.80;54.90
23669;DHT22;12011;47.422;15.018;2023-02-27T14:49:26;2.80;53.30
23669;DHT22;12011;47.422;15.018;2023-02-27T14:52:10;2.10;55.20
23669;DHT22;12011;47.422;15.018;2023-02-27T14:54:40;2.50;54.00
23669;DHT22;12011;47.422;15.018;2023-02-27T14:57:16;2.30;54.10
23669;DHT22;12011;47.422;15.018;2023-02-27T14:59:49;3.10;58.40
23669;DHT22;12011;47.422;15.018;2023-02-27T15:02:22;2.10;54.30
23669;DHT22;12011;47.422;15.018;2023-02-27T15:05:11;3.10;55.30
23669;DHT22;12011;47.422;15.018;2023-02-27T15:07:47;2.30;55.60
23669;DHT22;12011;47.422;15.018;2023-02-27T15:10:22;2.20;60.70
23669;DHT22;12011;47.422;15.018;2023-02-27T15:12:56;2.10;57.50
23669;DHT22;12011;47.422;15.018;2023-02-27T15:15:27;3.10;59.20
23669;DHT22;12011;47.422;15.018;2023-02-27T15:17:57;2.90;56.30
23669;DHT22;12011;47.422;15.018;2023-02-27T15:20:29;1.90;56.50
23669;DHT22;12011;47.422;15.018;2023-02-27T15:23:22;2.10;56.40
23669;DHT22;12011;47.422;15.018;2023-02-27T15:25:58;2.50;57.20
23669;DHT22;12011;47.422;15.018;2023-02-27T15:28:36;2.00;57.60
23669;DHT22;12011;47.422;15.018;2023-02-27T15:31:11;2.00;59.70
23669;DHT22;12011;47.422;15.018;2023-02-27T15:33:46;2.20;57.60
23669;DHT22;12011;47.422;15.018;2023-02-27T15:36:21;1.30;57.90
23669;DHT22;12011;47.422;15.018;2023-02-27T15:39:15;1.60;58.20
23669;DHT22;12011;47.422;15.018;2023-02-27T15:41:48;1.00;58.70
23669;DHT22;12011;47.422;15.018;2023-02-27T15:44:25;1.80;59.40
23669;DHT22;12011;47.422;15.018;2023-02-27T15:46:56;0.60;58.00
23669;DHT22;12011;47.422;15.018;2023-02-27T15:49:26;0.70;63.40
23669;DHT22;12011;47.422;15.018;2023-02-27T15:52:02;1.00;61.90
23669;DHT22;12011;47.422;15.018;2023-02-27T15:54:36;1.50;62.30
23669;DHT22;12011;47.422;15.018;2023-02-27T15:57:14;1.10;62.10
23669;DHT22;12011;47.422;15.018;2023-02-27T15:59:44;1.40;59.90
23669;DHT22;12011;47.422;15.018;2023-02-27T16:02:19;0.90;63.30
23669;DHT22;12011;47.422;15.018;2023-02-27T16:04:51;0.90;65.30
23669;DHT22;12011;47.422;15.018;2023-02-27T16:07:23;1.10;62.90
23669;DHT22;12011;47.422;15.018;2023-02-27T16:10:07;0.60;64.10
23669;DHT22;12011;47.422;15.018;2023-02-27T16:12:43;0.50;62.90
23669;DHT22;12011;47.422;15.018;2023-02-27T16:15:21;0.60;63.20
23669;DHT22;12011;47.422;15.018;2023-02-27T16:18:00;0.40;65.90
23669;DHT22;12011;47.422;15.018;2023-02-27T16:20:39;0.60;68.50
23669;DHT22;12011;47.422;15.018;2023-02-27T16:23:22;0.40;68.20
23669;DHT22;12011;47.422;15.018;2023-02-27T16:26:04;0.40;69.60
23669;DHT22;12011;47.422;15.018;2023-02-27T16:28:49;0.40;68.10
23669;DHT22;12011;47.422;15.018;2023-02-27T16:31:25;0.80;68.80
23669;DHT22;12011;47.422;15.018;2023-02-27T16:34:01;0.30;73.60
23669;DHT22;12011;47.422;15.018;2023-02-27T16:36:32;1.10;70.30
23669;DHT22;12011;47.422;15.018;2023-02-27T16:39:01;0.30;72.10
23669;DHT22;12011;47.422;15.018;2023-02-27T16:41:34;0.50;72.60
23669;DHT22;12011;47.422;15.018;2023-02-27T16:44:04;0.10;73.20
23669;DHT22;12011;47.422;15.018;2023-02-27T16:46:34;0.40;72.40
23669;DHT22;12011;47.422;15.018;2023-02-27T16:49:03;-0.60;75.30
23669;DHT22;12011;47.422;15.018;2023-02-27T16:51:33;1.00;74.80
23669;DHT22;12011;47.422;15.018;2023-02-27T16:54:03;-0.50;74.80
23669;DHT22;12011;47.422;15.018;2023-02-27T16:56:38;0.50;73.00
23669;DHT22;12011;47.422;15.018;2023-02-27T16:59:25;0.00;74.90
23669;DHT22;12011;47.422;15.018;2023-02-27T17:01:57;0.10;77.50
23669;DHT22;12011;47.422;15.018;2023-02-27T17:04:28;-0.30;73.20
23669;DHT22;12011;47.422;15.018;2023-02-27T17:07:00;0.30;75.80
23669;DHT22;12011;47.422;15.018;2023-02-27T17:09:29;0.90;77.90
23669;DHT22;12011;47.422;15.018;2023-02-27T17:12:03;0.00;76.00
23669;DHT22;12011;47.422;15.018;2023-02-27T17:14:32;-0.30;78.90
23669;DHT22;12011;47.422;15.018;2023-02-27T17:17:02;0.20;77.90
23669;DHT22;12011;47.422;15.018;2023-02-27T17:19:32;0.50;79.40
23669;DHT22;12011;47.422;15.018;2023-02-27T17:22:02;0.70;76.40
23669;DHT22;12011;47.422;15.018;2023-02-27T17:24:32;-0.20;79.10
23669;DHT22;12011;47.422;15.018;2023-02-27T17:27:04;-0.10;82.90
23669;DHT22;12011;47.422;15.018;2023-02-27T17:29:36;0.30;82.50
23669;DHT22;12011;47.422;15.018;2023-02-27T17:32:06;0.90;80.90
23669;DHT22;12011;47.422;15.018;2023-02-27T17:34:36;0.70;82.10
23669;DHT22;12011;47.422;15.018;2023-02-27T17:37:05;1.90;82.30
23669;DHT22;12011;47.422;15.018;2023-02-27T17:39:35;0.50;79.90
23669;DHT22;12011;47.422;15.018;2023-02-27T17:42:10;-0.30;83.10
23669;DHT22;12011;47.422;15.018;2023-02-27T17:44:44;-0.70;80.20
23669;DHT22;12011;47.422;15.018;2023-02-27T17:47:13;0.00;80.40
23669;DHT22;12011;47.422;15.018;2023-02-27T17:49:43;-0.30;79.80
23669;DHT22;12011;47.422;15.018;2023-02-27T17:52:13;-0.70;79.60
23669;DHT22;12011;47.422;15.018;2023-02-27T17:54:44;-0.60;79.30
23669;DHT22;12011;47.422;15.018;2023-02-27T17:57:20;-0.20;80.40
23669;DHT22;12011;47.422;15.018;2023-02-27T17:59:57;-1.50;78.70
23669;DHT22;12011;47.422;15.018;2023-02-27T18:02:40;-1.20;74.90
23669;DHT22;12011;47.422;15.018;2023-02-27T18:05:11;-1.40;80.70
23669;DHT22;12011;47.422;15.018;2023-02-27T18:07:52;-1.00;81.40
23669;DHT22;12011;47.422;15.018;2023-02-27T18:10:26;0.70;83.70
23669;DHT22;12011;47.422;15.018;2023-02-27T18:13:01;0.70;83.50
23669;DHT22;12011;47.422;15.018;2023-02-27T18:15:33;-1.60;81.30
23669;DHT22;12011;47.422;15.018;2023-02-27T18:18:12;-0.90;81.70
23669;DHT22;12011;47.422;15.018;2023-02-27T18:20:44;0.60;83.70
23669;DHT22;12011;47.422;15.018;2023-02-27T18:23:30;-2.30;78.90
23669;DHT22;12011;47.422;15.018;2023-02-27T18:26:10;0.30;86.70
23669;DHT22;12011;47.422;15.018;2023-02-27T18:28:45;-1.30;82.00
23669;DHT22;12011;47.422;15.018;2023-02-27T18:31:19;-0.70;81.70
23669;DHT22;12011;47.422;15.018;2023-02-27T18:33:53;-0.40;79.90
23669;DHT22;12011;47.422;15.018;2023-02-27T18:36:30;-0.30;80.30
23669;DHT22;12011;47.422;15.018;2023-02-27T18:39:05;-1.20;75.80
23669;DHT22;12011;47.422;15.018;2023-02-27T18:41:39;-0.20;80.70
23669;DHT22;12011;47.422;15.018;2023-02-27T18:44:15;-0.50;85.70
23669;DHT22;12011;47.422;15.018;2023-02-27T18:46:46;-1.70;79.80
23669;DHT22;12011;47.422;15.018;2023-02-27T18:49:17;1.10;82.40